createdAt,value
2023-05-18T00:00:16.554Z,99957.06
2023-05-18T00:02:48.679Z,99956.78
2023-05-18T00:05:20.809Z,99953.84
2023-05-18T00:07:51.317Z,99956.50
2023-05-18T00:10:21.111Z,99946.84
2023-05-18T00:12:50.831Z,99942.16
2023-05-18T00:15:19.945Z,99940.38
2023-05-18T00:17:50.824Z,99951.72
2023-05-18T00:20:22.381Z,99947.66
2023-05-18T00:22:53.090Z,99944.88
2023-05-18T00:25:21.599Z,99955.94
2023-05-18T00:27:52.224Z,99954.16
2023-05-18T00:30:21.625Z,99951.19
2023-05-18T00:32:50.049Z,99947.19
2023-05-18T00:35:20.657Z,99948.56
2023-05-18T00:37:49.314Z,99937.94
2023-05-18T00:40:20.089Z,99945.69
2023-05-18T00:42:48.457Z,99949.78
2023-05-18T00:45:17.101Z,99950.88
2023-05-18T00:47:49.474Z,99947.59
2023-05-18T00:50:18.013Z,99944.56
2023-05-18T00:52:47.896Z,99947.69
2023-05-18T00:55:20.063Z,99946.63
2023-05-18T00:57:48.571Z,99943.53
2023-05-18T01:00:17.534Z,99945.47
2023-05-18T01:02:48.953Z,99940.09
2023-05-18T01:05:18.513Z,99949.00
2023-05-18T01:07:47.279Z,99939.41
2023-05-18T01:10:18.821Z,99942.88
2023-05-18T01:12:52.448Z,99947.03
2023-05-18T01:15:24.017Z,99942.00
2023-05-18T01:18:10.693Z,99946.50
2023-05-18T01:20:46.184Z,99950.66
2023-05-18T01:23:47.091Z,99952.44
2023-05-18T01:26:25.534Z,99949.56
2023-05-18T01:28:55.308Z,99949.06
2023-05-18T01:31:24.616Z,99954.72
2023-05-18T01:33:54.625Z,99963.63
2023-05-18T01:36:23.711Z,99955.66
2023-05-18T01:38:52.788Z,99958.91
2023-05-18T01:41:24.947Z,99963.09
2023-05-18T01:44:01.581Z,99955.81
2023-05-18T01:46:38.232Z,99956.97
2023-05-18T01:49:16.770Z,99963.25
2023-05-18T01:51:48.134Z,99947.56
2023-05-18T01:54:19.222Z,99953.63
2023-05-18T01:56:52.438Z,99956.69
2023-05-18T01:59:22.469Z,99958.09
2023-05-18T02:01:51.032Z,99955.69
2023-05-18T02:04:28.546Z,99956.16
2023-05-18T02:06:57.139Z,99954.13
2023-05-18T02:09:28.823Z,99952.78
2023-05-18T02:11:59.894Z,99951.69
2023-05-18T02:14:30.363Z,99947.38
2023-05-18T02:16:58.818Z,99955.28
2023-05-18T02:19:27.331Z,99957.06
2023-05-18T02:21:56.435Z,99963.44
2023-05-18T02:24:25.047Z,99960.59
2023-05-18T02:26:53.345Z,99953.97
2023-05-18T02:29:23.440Z,99958.13
2023-05-18T02:31:51.936Z,99957.31
2023-05-18T02:34:22.184Z,99950.56
2023-05-18T02:36:50.527Z,99949.38
2023-05-18T02:39:18.817Z,99953.38
2023-05-18T02:41:47.335Z,99953.03
2023-05-18T02:44:16.055Z,99954.53
2023-05-18T02:46:45.680Z,99955.75
2023-05-18T02:49:13.822Z,99957.84
2023-05-18T02:51:42.284Z,99955.97
2023-05-18T02:54:10.930Z,99952.03
2023-05-18T02:56:41.901Z,99962.81
2023-05-18T02:59:10.130Z,99958.69
2023-05-18T03:01:38.989Z,99961.44
2023-05-18T03:04:09.100Z,99960.25
2023-05-18T03:06:40.411Z,99967.97
2023-05-18T03:09:08.598Z,99969.34
2023-05-18T03:11:36.827Z,99972.13
2023-05-18T03:14:05.389Z,99968.88
2023-05-18T03:16:34.087Z,99963.69
2023-05-18T03:19:03.153Z,99966.03
2023-05-18T03:21:36.206Z,99963.94
2023-05-18T03:24:05.605Z,99964.78
2023-05-18T03:26:34.072Z,99966.09
2023-05-18T03:29:02.638Z,99968.13
2023-05-18T03:31:34.038Z,99968.56
2023-05-18T03:34:03.538Z,99965.75
2023-05-18T03:36:33.520Z,99960.13
2023-05-18T03:39:01.761Z,99969.06
2023-05-18T03:41:31.974Z,99962.38
2023-05-18T03:44:00.343Z,99961.69
2023-05-18T03:46:28.979Z,99967.66
2023-05-18T03:48:58.164Z,99964.53
2023-05-18T03:51:27.381Z,99970.34
2023-05-18T03:53:58.491Z,99972.91
2023-05-18T03:56:27.821Z,99974.09
2023-05-18T03:58:56.226Z,99978.34
2023-05-18T04:01:24.758Z,99979.97
2023-05-18T04:03:56.693Z,99970.91
2023-05-18T04:06:26.432Z,99975.88
2023-05-18T04:08:55.119Z,99981.97
2023-05-18T04:11:24.960Z,99983.75
2023-05-18T04:13:53.476Z,99973.44
2023-05-18T04:16:25.130Z,99976.81
2023-05-18T04:18:54.278Z,99983.50
2023-05-18T04:21:23.428Z,99980.22
2023-05-18T04:23:53.400Z,99976.59
2023-05-18T04:26:22.401Z,99981.28
2023-05-18T04:28:52.779Z,99977.88
2023-05-18T04:31:22.101Z,99980.38
2023-05-18T04:33:51.624Z,99981.94
2023-05-18T04:36:25.847Z,99988.03
2023-05-18T04:38:54.312Z,99980.34
2023-05-18T04:41:22.759Z,99991.94
2023-05-18T04:43:54.408Z,99989.03
2023-05-18T04:46:24.038Z,99987.94
2023-05-18T04:48:53.403Z,99985.06
2023-05-18T04:51:22.370Z,99984.25
2023-05-18T04:53:53.300Z,99985.97
2023-05-18T04:56:22.901Z,99984.69
2023-05-18T04:58:52.990Z,99989.88
2023-05-18T05:01:21.433Z,99989.91
2023-05-18T05:03:50.152Z,99990.63
2023-05-18T05:06:20.944Z,99991.41
2023-05-18T05:08:49.735Z,99992.66
2023-05-18T05:11:18.629Z,99982.25
2023-05-18T05:13:46.849Z,99992.44
2023-05-18T05:16:17.307Z,99988.72
2023-05-18T05:18:47.394Z,99988.91
2023-05-18T05:21:17.281Z,99992.22
2023-05-18T05:23:45.982Z,99992.75
2023-05-18T05:26:14.353Z,99990.56
2023-05-18T05:28:42.739Z,99984.81
2023-05-18T05:31:11.431Z,99979.00
2023-05-18T05:33:41.644Z,99978.41
2023-05-18T05:36:10.717Z,99981.34
2023-05-18T05:38:39.193Z,99978.75
2023-05-18T05:41:08.013Z,99987.44
2023-05-18T05:43:36.359Z,99985.56
2023-05-18T05:46:04.893Z,99976.78
2023-05-18T05:48:34.212Z,99977.31
2023-05-18T05:51:04.072Z,99983.31
2023-05-18T05:53:32.834Z,99984.06
2023-05-18T05:56:01.261Z,99982.69
2023-05-18T05:58:29.644Z,99988.81
2023-05-18T06:00:58.156Z,99983.41
2023-05-18T06:03:26.748Z,99982.06
2023-05-18T06:05:56.611Z,99987.97
2023-05-18T06:08:28.821Z,99993.97
2023-05-18T06:10:59.247Z,99982.53
2023-05-18T06:13:28.052Z,99997.47
2023-05-18T06:15:56.482Z,99991.72
2023-05-18T06:18:24.779Z,99990.00
2023-05-18T06:20:53.455Z,99993.47
2023-05-18T06:23:23.829Z,99996.09
2023-05-18T06:25:54.098Z,99992.75
2023-05-18T06:28:24.493Z,99990.75
2023-05-18T06:30:52.963Z,99997.25
2023-05-18T06:33:23.803Z,99989.19
2023-05-18T06:35:52.499Z,99990.88
2023-05-18T06:38:21.102Z,99991.88
2023-05-18T06:40:50.136Z,99992.09
2023-05-18T06:43:19.952Z,99991.44
2023-05-18T06:45:48.507Z,99994.00
2023-05-18T06:48:16.819Z,100008.41
2023-05-18T06:50:45.805Z,100002.16
2023-05-18T06:53:15.934Z,99992.53
2023-05-18T06:55:44.162Z,99998.63
2023-05-18T06:58:12.400Z,100005.84
2023-05-18T07:00:42.869Z,100006.09
2023-05-18T07:03:11.315Z,100003.59
2023-05-18T07:05:40.066Z,100002.81
2023-05-18T07:08:09.880Z,100002.66
2023-05-18T07:10:38.682Z,100006.09
2023-05-18T07:13:08.446Z,100004.19
2023-05-18T07:15:36.921Z,100006.44
2023-05-18T07:18:06.704Z,100007.63
2023-05-18T07:20:35.274Z,100012.53
2023-05-18T07:23:04.224Z,100015.44
2023-05-18T07:25:32.625Z,100010.25
2023-05-18T07:28:02.391Z,100011.81
2023-05-18T07:30:30.978Z,100008.09
2023-05-18T07:32:59.470Z,100007.72
2023-05-18T07:35:29.883Z,100008.00
2023-05-18T07:38:00.728Z,100017.81
2023-05-18T07:40:28.936Z,100010.19
2023-05-18T07:42:57.100Z,100008.81
2023-05-18T07:45:25.349Z,100011.56
2023-05-18T07:47:54.284Z,100011.03
2023-05-18T07:50:22.954Z,100004.66
2023-05-18T07:53:07.119Z,100005.94
2023-05-18T07:55:37.083Z,99995.97
2023-05-18T07:58:05.230Z,100004.19
2023-05-18T08:00:33.519Z,99997.59
2023-05-18T08:03:02.826Z,100007.06
2023-05-18T08:05:32.306Z,99997.53
2023-05-18T08:08:08.351Z,99994.91
2023-05-18T08:10:36.806Z,99992.22
2023-05-18T08:13:05.932Z,99996.91
2023-05-18T08:15:36.191Z,99984.84
2023-05-18T08:18:04.759Z,99986.81
2023-05-18T08:20:34.114Z,99987.56
2023-05-18T08:23:04.666Z,99979.91
2023-05-18T08:25:33.680Z,99987.16
2023-05-18T08:28:02.059Z,99979.69
2023-05-18T08:30:32.845Z,99982.47
2023-05-18T08:33:01.945Z,99978.56
2023-05-18T08:35:30.908Z,99978.22
2023-05-18T08:38:00.531Z,99977.66
2023-05-18T08:40:38.762Z,99980.41
2023-05-18T08:43:14.118Z,99966.25
2023-05-18T08:45:48.974Z,99972.13
2023-05-18T08:48:18.235Z,99964.59
2023-05-18T08:50:51.690Z,99963.72
2023-05-18T08:53:23.312Z,99966.41
2023-05-18T08:55:55.606Z,99973.13
2023-05-18T08:58:32.487Z,99965.00
2023-05-18T09:01:02.959Z,99968.34
2023-05-18T09:03:33.054Z,99965.75
2023-05-18T09:06:03.239Z,99967.91
2023-05-18T09:08:33.915Z,99974.38
2023-05-18T09:11:04.752Z,99966.69
2023-05-18T09:13:35.078Z,99963.28
2023-05-18T09:16:04.460Z,99964.41
2023-05-18T09:18:32.975Z,99958.75
2023-05-18T09:21:01.513Z,99954.31
2023-05-18T09:23:29.887Z,99949.38
2023-05-18T09:26:01.178Z,99948.00
2023-05-18T09:28:36.807Z,99946.59
2023-05-18T09:31:08.052Z,99950.25
2023-05-18T09:33:37.939Z,99950.16
2023-05-18T09:36:07.488Z,99941.03
2023-05-18T09:38:38.796Z,99929.00
2023-05-18T09:41:13.032Z,99934.34
2023-05-18T09:43:44.025Z,99936.13
2023-05-18T09:46:14.674Z,99932.75
2023-05-18T09:48:47.372Z,99936.53
2023-05-18T09:51:17.827Z,99942.38
2023-05-18T09:53:49.749Z,99942.25
2023-05-18T09:56:20.128Z,99939.97
2023-05-18T09:58:50.103Z,99938.00
2023-05-18T10:01:19.104Z,99941.03
2023-05-18T10:03:49.911Z,99933.63
2023-05-18T10:06:20.368Z,99936.41
2023-05-18T10:08:48.665Z,99937.28
2023-05-18T10:11:22.082Z,99938.84
2023-05-18T10:13:57.877Z,99925.47
2023-05-18T10:16:27.007Z,99924.69
2023-05-18T10:18:57.454Z,99922.34
2023-05-18T10:21:29.926Z,99922.41
2023-05-18T10:24:01.030Z,99911.75
2023-05-18T10:26:32.005Z,99911.72
2023-05-18T10:29:02.303Z,99912.09
2023-05-18T10:31:32.910Z,99914.88
2023-05-18T10:34:01.855Z,99909.34
2023-05-18T10:36:33.015Z,99906.34
2023-05-18T10:39:03.963Z,99907.66
2023-05-18T10:41:33.993Z,99913.38
2023-05-18T10:44:05.216Z,99915.66
2023-05-18T10:46:35.114Z,99909.28
2023-05-18T10:49:05.925Z,99910.19
2023-05-18T10:51:35.367Z,99904.91
2023-05-18T10:54:13.756Z,99898.28
2023-05-18T10:56:45.269Z,99892.13
2023-05-18T10:59:20.486Z,99897.19
2023-05-18T11:01:50.999Z,99895.25
2023-05-18T11:04:24.850Z,99901.63
2023-05-18T11:06:59.116Z,99898.81
2023-05-18T11:09:27.977Z,99897.66
2023-05-18T11:11:59.695Z,99896.50
2023-05-18T11:14:34.718Z,99892.28
2023-05-18T11:17:19.339Z,99888.91
2023-05-18T11:20:13.299Z,99882.13
2023-05-18T11:22:48.782Z,99885.06
2023-05-18T11:25:40.018Z,99882.38
2023-05-18T11:28:10.320Z,99880.13
2023-05-18T11:30:55.076Z,99876.66
2023-05-18T11:33:25.714Z,99881.41
2023-05-18T11:36:07.777Z,99871.59
2023-05-18T11:38:50.832Z,99868.94
2023-05-18T11:41:29.873Z,99870.59
2023-05-18T11:44:19.185Z,99871.84
2023-05-18T11:46:57.735Z,99875.00
2023-05-18T11:49:28.978Z,99872.59
2023-05-18T11:52:07.962Z,99867.25
2023-05-18T11:54:48.306Z,99868.59
2023-05-18T11:57:18.898Z,99856.97
2023-05-18T11:59:51.496Z,99862.47
2023-05-18T12:02:27.861Z,99862.88
2023-05-18T12:04:58.742Z,99858.81
2023-05-18T12:07:28.497Z,99863.66
2023-05-18T12:09:59.915Z,99861.00
2023-05-18T12:12:29.864Z,99855.44
2023-05-18T12:14:59.946Z,99850.56
2023-05-18T12:17:47.964Z,99863.09
2023-05-18T12:20:18.163Z,99850.78
2023-05-18T12:22:50.445Z,99855.31
2023-05-18T12:25:19.784Z,99851.09
2023-05-18T12:27:49.341Z,99853.94
2023-05-18T12:30:19.843Z,99848.44
2023-05-18T12:32:53.423Z,99846.53
2023-05-18T12:35:24.164Z,99839.31
2023-05-18T12:37:52.589Z,99845.91
2023-05-18T12:40:22.067Z,99837.47
2023-05-18T12:42:54.715Z,99831.22
2023-05-18T12:45:25.198Z,99830.31
2023-05-18T12:47:56.299Z,99831.72
2023-05-18T12:50:27.161Z,99833.84
2023-05-18T12:52:56.775Z,99828.03
2023-05-18T12:55:26.790Z,99831.41
2023-05-18T12:58:03.587Z,99811.94
2023-05-18T13:00:35.102Z,99815.63
2023-05-18T13:03:15.387Z,99811.63
2023-05-18T13:05:45.737Z,99827.44
2023-05-18T13:08:16.556Z,99817.38
2023-05-18T13:10:45.779Z,99816.94
2023-05-18T13:13:17.687Z,99829.50
2023-05-18T13:15:46.993Z,99807.78
2023-05-18T13:18:17.460Z,99816.31
2023-05-18T13:20:48.909Z,99813.69
2023-05-18T13:23:19.509Z,99816.25
2023-05-18T13:25:47.988Z,99804.56
2023-05-18T13:28:19.070Z,99800.59
2023-05-18T13:30:49.182Z,99806.53
2023-05-18T13:33:19.595Z,99803.13
2023-05-18T13:35:50.110Z,99806.59
2023-05-18T13:38:18.547Z,99799.38
2023-05-18T13:40:47.253Z,99803.13
2023-05-18T13:43:15.397Z,99798.69
2023-05-18T13:45:43.904Z,99798.16
2023-05-18T13:48:12.159Z,99798.34
2023-05-18T13:50:42.254Z,99797.44
2023-05-18T13:53:11.022Z,99791.19
2023-05-18T13:55:39.622Z,99784.63
2023-05-18T13:58:07.967Z,99785.41
2023-05-18T14:00:36.581Z,99790.19
2023-05-18T14:03:06.521Z,99792.34
2023-05-18T14:05:35.372Z,99783.25
2023-05-18T14:08:05.371Z,99780.03
2023-05-18T14:10:33.857Z,99784.91
2023-05-18T14:13:02.135Z,99779.16
2023-05-18T14:15:31.461Z,99777.22
2023-05-18T14:17:59.960Z,99785.34
2023-05-18T14:20:29.621Z,99766.41
2023-05-18T14:22:58.212Z,99773.91
2023-05-18T14:25:28.073Z,99765.88
2023-05-18T14:27:56.473Z,99768.63
2023-05-18T14:30:25.552Z,99760.06
2023-05-18T14:32:54.030Z,99758.00
2023-05-18T14:35:22.942Z,99768.72
2023-05-18T14:37:51.422Z,99765.22
2023-05-18T14:40:19.573Z,99760.41
2023-05-18T14:42:50.407Z,99766.03
2023-05-18T14:45:20.659Z,99762.88
2023-05-18T14:47:48.918Z,99753.22
2023-05-18T14:50:17.386Z,99755.13
2023-05-18T14:52:46.995Z,99758.47
2023-05-18T14:55:15.249Z,99755.34
2023-05-18T14:57:43.663Z,99750.25
2023-05-18T15:00:16.510Z,99749.88
2023-05-18T15:02:44.780Z,99747.19
2023-05-18T15:05:13.269Z,99758.78
2023-05-18T15:07:41.699Z,99749.44
2023-05-18T15:10:11.266Z,99750.84
2023-05-18T15:12:39.664Z,99746.88
2023-05-18T15:15:09.165Z,99749.78
2023-05-18T15:17:39.014Z,99746.34
2023-05-18T15:20:08.963Z,99744.81
2023-05-18T15:22:38.690Z,99742.91
2023-05-18T15:25:08.926Z,99741.94
2023-05-18T15:27:39.551Z,99748.53
2023-05-18T15:30:11.858Z,99748.94
2023-05-18T15:32:42.762Z,99746.78
2023-05-18T15:35:11.979Z,99754.22
2023-05-18T15:37:40.479Z,99748.00
2023-05-18T15:40:10.471Z,99743.09
2023-05-18T15:42:39.263Z,99750.91
2023-05-18T15:45:08.966Z,99747.88
2023-05-18T15:47:38.911Z,99758.47
2023-05-18T15:50:10.403Z,99747.53
2023-05-18T15:52:38.887Z,99741.22
2023-05-18T15:55:08.372Z,99743.63
2023-05-18T15:57:38.056Z,99741.81
2023-05-18T16:00:09.565Z,99741.44
2023-05-18T16:02:38.167Z,99736.44
2023-05-18T16:05:09.784Z,99741.59
2023-05-18T16:07:41.291Z,99742.31
2023-05-18T16:10:10.838Z,99725.97
2023-05-18T16:12:39.345Z,99734.31
2023-05-18T16:15:08.958Z,99732.56
2023-05-18T16:17:38.642Z,99732.56
2023-05-18T16:20:10.563Z,99735.09
2023-05-18T16:22:39.350Z,99737.28
2023-05-18T16:25:09.005Z,99737.69
2023-05-18T16:27:37.389Z,99742.09
2023-05-18T16:30:08.520Z,99741.91
2023-05-18T16:32:37.007Z,99740.53
2023-05-18T16:35:05.984Z,99743.97
2023-05-18T16:37:36.714Z,99743.56
2023-05-18T16:40:05.782Z,99737.19
2023-05-18T16:42:34.301Z,99735.97
2023-05-18T16:45:02.525Z,99738.97
2023-05-18T16:47:32.823Z,99732.94
2023-05-18T16:50:01.903Z,99740.69
2023-05-18T16:52:30.364Z,99741.41
2023-05-18T16:55:02.317Z,99744.09
2023-05-18T16:57:31.237Z,99746.09
2023-05-18T17:00:01.266Z,99746.28
2023-05-18T17:02:30.053Z,99752.25
2023-05-18T17:04:59.159Z,99752.09
2023-05-18T17:07:27.445Z,99750.84
2023-05-18T17:09:55.935Z,99751.72
2023-05-18T17:12:26.222Z,99750.06
2023-05-18T17:14:54.605Z,99753.28
2023-05-18T17:17:23.766Z,99751.25
2023-05-18T17:19:52.341Z,99746.53
2023-05-18T17:22:20.669Z,99749.50
2023-05-18T17:24:48.807Z,99749.19
2023-05-18T17:27:16.962Z,99751.75
2023-05-18T17:29:46.635Z,99755.41
2023-05-18T17:32:15.180Z,99749.16
2023-05-18T17:34:44.781Z,99747.63
2023-05-18T17:37:14.424Z,99753.47
2023-05-18T17:39:44.110Z,99747.59
2023-05-18T17:42:12.550Z,99751.28
2023-05-18T17:44:40.776Z,99751.94
2023-05-18T17:47:10.582Z,99754.06
2023-05-18T17:49:39.160Z,99750.91
2023-05-18T17:52:08.074Z,99757.81
2023-05-18T17:54:37.706Z,99756.53
2023-05-18T17:57:06.677Z,99755.41
2023-05-18T17:59:37.207Z,99760.41
2023-05-18T18:02:06.108Z,99759.97
2023-05-18T18:04:36.134Z,99765.88
2023-05-18T18:07:05.429Z,99761.38
2023-05-18T18:09:33.862Z,99757.56
2023-05-18T18:12:02.498Z,99758.41
2023-05-18T18:14:33.774Z,99753.44
2023-05-18T18:17:02.195Z,99753.16
2023-05-18T18:19:30.626Z,99754.13
2023-05-18T18:22:00.669Z,99761.09
2023-05-18T18:24:29.024Z,99763.44
2023-05-18T18:26:57.799Z,99760.97
2023-05-18T18:29:29.854Z,99764.63
2023-05-18T18:31:58.419Z,99764.53
2023-05-18T18:34:26.747Z,99761.69
2023-05-18T18:36:57.019Z,99766.63
2023-05-18T18:39:27.328Z,99770.41
2023-05-18T18:41:55.919Z,99766.78
2023-05-18T18:44:24.382Z,99756.84
2023-05-18T18:46:52.822Z,99772.47
2023-05-18T18:49:21.201Z,99773.16
2023-05-18T18:51:51.917Z,99769.19
2023-05-18T18:54:20.614Z,99776.66
2023-05-18T18:56:51.214Z,99769.53
2023-05-18T18:59:21.380Z,99771.94
2023-05-18T19:01:51.031Z,99781.88
2023-05-18T19:04:20.966Z,99778.53
2023-05-18T19:06:54.025Z,99785.28
2023-05-18T19:09:24.351Z,99780.31
2023-05-18T19:11:54.700Z,99786.06
2023-05-18T19:14:23.647Z,99788.22
2023-05-18T19:16:52.314Z,99801.13
2023-05-18T19:19:20.931Z,99795.91
2023-05-18T19:21:50.791Z,99800.84
2023-05-18T19:24:19.248Z,99799.97
2023-05-18T19:26:50.422Z,99806.56
2023-05-18T19:29:20.474Z,99806.28
2023-05-18T19:31:50.407Z,99811.69
2023-05-18T19:34:19.327Z,99812.75
2023-05-18T19:36:49.045Z,99813.31
2023-05-18T19:39:17.666Z,99815.06
2023-05-18T19:41:46.407Z,99813.09
2023-05-18T19:44:16.433Z,99821.31
2023-05-18T19:46:46.429Z,99820.59
2023-05-18T19:49:14.955Z,99826.97
2023-05-18T19:51:43.462Z,99828.09
2023-05-18T19:54:14.473Z,99824.16
2023-05-18T19:56:43.010Z,99830.06
2023-05-18T19:59:11.632Z,99827.19
2023-05-18T20:01:40.232Z,99826.72
2023-05-18T20:04:10.698Z,99835.38
2023-05-18T20:06:40.585Z,99826.41
2023-05-18T20:09:10.474Z,99825.78
2023-05-18T20:11:41.558Z,99833.00
2023-05-18T20:14:11.520Z,99821.22
2023-05-18T20:16:40.918Z,99829.28
2023-05-18T20:19:14.366Z,99831.97
2023-05-18T20:21:42.912Z,99835.16
2023-05-18T20:24:12.804Z,99835.16
2023-05-18T20:26:41.590Z,99836.31
2023-05-18T20:29:09.807Z,99833.56
2023-05-18T20:31:38.702Z,99838.78
2023-05-18T20:34:07.352Z,99839.66
2023-05-18T20:36:38.226Z,99841.56
2023-05-18T20:39:07.438Z,99843.44
2023-05-18T20:41:40.974Z,99841.69
2023-05-18T20:44:12.031Z,99835.78
2023-05-18T20:46:42.818Z,99835.94
2023-05-18T20:49:12.539Z,99839.41
2023-05-18T20:51:43.333Z,99838.91
2023-05-18T20:54:12.965Z,99840.59
2023-05-18T20:56:41.782Z,99840.59
2023-05-18T20:59:13.391Z,99839.94
2023-05-18T21:01:42.945Z,99845.38
2023-05-18T21:04:13.664Z,99844.34
2023-05-18T21:06:46.573Z,99851.03
2023-05-18T21:09:14.802Z,99846.66
2023-05-18T21:11:43.104Z,99849.66
2023-05-18T21:14:11.502Z,99847.13
2023-05-18T21:16:39.839Z,99847.34
2023-05-18T21:19:08.093Z,99849.78
2023-05-18T21:21:37.063Z,99851.38
2023-05-18T21:24:07.157Z,99843.56
2023-05-18T21:26:35.380Z,99852.50
2023-05-18T21:29:04.797Z,99854.53
2023-05-18T21:31:33.385Z,99855.63
2023-05-18T21:34:01.950Z,99850.72
2023-05-18T21:36:34.312Z,99852.84
2023-05-18T21:39:04.204Z,99848.91
2023-05-18T21:41:35.431Z,99839.94
2023-05-18T21:44:03.666Z,99850.84
2023-05-18T21:46:32.062Z,99854.84
2023-05-18T21:49:01.806Z,99856.66
2023-05-18T21:51:32.705Z,99853.97
2023-05-18T21:54:02.923Z,99853.72
2023-05-18T21:56:35.255Z,99855.34
2023-05-18T21:59:09.949Z,99852.19
2023-05-18T22:01:38.864Z,99855.16
2023-05-18T22:04:07.391Z,99847.88
2023-05-18T22:06:38.018Z,99851.66
2023-05-18T22:09:06.550Z,99845.88
2023-05-18T22:11:35.124Z,99846.81
2023-05-18T22:14:05.143Z,99844.38
2023-05-18T22:16:34.959Z,99845.97
2023-05-18T22:19:03.475Z,99848.75
2023-05-18T22:21:32.112Z,99853.31
2023-05-18T22:24:00.927Z,99850.28
2023-05-18T22:26:29.634Z,99850.56
2023-05-18T22:29:00.008Z,99846.59
2023-05-18T22:31:33.497Z,99854.38
2023-05-18T22:34:06.564Z,99848.78
2023-05-18T22:36:36.477Z,99853.69
2023-05-18T22:39:07.062Z,99844.03
2023-05-18T22:41:35.497Z,99853.72
2023-05-18T22:44:03.774Z,99849.78
2023-05-18T22:46:35.150Z,99850.50
2023-05-18T22:49:05.713Z,99843.16
2023-05-18T22:51:35.853Z,99841.53
2023-05-18T22:54:04.383Z,99842.88
2023-05-18T22:56:33.016Z,99843.44
2023-05-18T22:59:01.334Z,99845.31
2023-05-18T23:01:29.884Z,99842.97
2023-05-18T23:04:00.697Z,99844.72
2023-05-18T23:06:31.850Z,99846.19
2023-05-18T23:09:01.131Z,99840.91
2023-05-18T23:11:31.167Z,99843.56
2023-05-18T23:14:02.854Z,99847.75
2023-05-18T23:16:31.386Z,99847.47
2023-05-18T23:19:01.992Z,99842.69
2023-05-18T23:21:31.272Z,99838.00
2023-05-18T23:23:59.960Z,99847.09
2023-05-18T23:26:28.300Z,99841.25
2023-05-18T23:28:56.492Z,99839.72
2023-05-18T23:31:25.622Z,99838.66
2023-05-18T23:33:54.617Z,99836.97
2023-05-18T23:36:27.553Z,99837.41
2023-05-18T23:38:59.092Z,99830.56
2023-05-18T23:41:28.832Z,99832.59
2023-05-18T23:43:58.605Z,99831.56
2023-05-18T23:46:27.354Z,99829.94
2023-05-18T23:48:58.025Z,99832.00
2023-05-18T23:51:32.221Z,99826.94
2023-05-18T23:54:00.796Z,99824.19
2023-05-18T23:56:30.923Z,99820.63
2023-05-18T23:59:01.817Z,99824.56
